sensor_id;sensor_type;location;lat;lon;timestamp;pressure;altitude;pressure_sealevel;temperature;humidity
80911;BME280;70359;51.420;7.032;2023-09-18T00:00:07;992.7123;;;22.63;59.91406
80911;BME280;70359;51.420;7.032;2023-09-18T00:02:32;992.5991;;;22.64;60.25195
80911;BME280;70359;51.420;7.032;2023-09-18T00:04:57;992.5854;;;22.63;60.46094
80911;BME280;70359;51.420;7.032;2023-09-18T00:07:22;992.5779;;;22.59;60.37402
80911;BME280;70359;51.420;7.032;2023-09-18T00:09:47;992.5513;;;22.57;60.65137
80911;BME280;70359;51.420;7.032;2023-09-18T00:12:12;992.541;;;22.52;61.02832
80911;BME280;70359;51.420;7.032;2023-09-18T00:14:37;992.5068;;;22.55;60.0791
80911;BME280;70359;51.420;7.032;2023-09-18T00:17:02;992.4827;;;22.52;60.0625
80911;BME280;70359;51.420;7.032;2023-09-18T00:19:27;992.463;;;22.52;60.61035
80911;BME280;70359;51.420;7.032;2023-09-18T00:21:52;992.4728;;;22.47;61.78809
80911;BME280;70359;51.420;7.032;2023-09-18T00:24:17;992.3998;;;22.47;61.45117
80911;BME280;70359;51.420;7.032;2023-09-18T00:26:42;992.3712;;;22.41;61.62891
80911;BME280;70359;51.420;7.032;2023-09-18T00:29:07;992.339;;;22.4;61.38281
80911;BME280;70359;51.420;7.032;2023-09-18T00:31:32;992.2899;;;22.34;61.62012
80911;BME280;70359;51.420;7.032;2023-09-18T00:33:57;992.2612;;;22.32;62.0459
80911;BME280;70359;51.420;7.032;2023-09-18T00:36:22;992.1872;;;22.25;62.46582
80911;BME280;70359;51.420;7.032;2023-09-18T00:38:47;992.1722;;;22.27;62.08496
80911;BME280;70359;51.420;7.032;2023-09-18T00:41:12;992.0736;;;22.21;62.21582
80911;BME280;70359;51.420;7.032;2023-09-18T00:43:37;991.9562;;;22.16;61.88477
80911;BME280;70359;51.420;7.032;2023-09-18T00:46:02;991.9256;;;22.11;62.33008
80911;BME280;70359;51.420;7.032;2023-09-18T00:48:27;991.9059;;;22.11;62.17969
80911;BME280;70359;51.420;7.032;2023-09-18T00:50:52;991.8986;;;22.08;61.88477
80911;BME280;70359;51.420;7.032;2023-09-18T00:53:17;991.8463;;;22.03;61.86719
80911;BME280;70359;51.420;7.032;2023-09-18T00:55:42;991.8367;;;21.98;62.55566
80911;BME280;70359;51.420;7.032;2023-09-18T00:58:07;991.8345;;;21.98;62.53223
80911;BME280;70359;51.420;7.032;2023-09-18T01:00:33;991.8;;;21.94;62.6543
80911;BME280;70359;51.420;7.032;2023-09-18T01:02:57;991.7326;;;21.89;62.84473
80911;BME280;70359;51.420;7.032;2023-09-18T01:05:22;991.6667;;;21.85;62.97949
80911;BME280;70359;51.420;7.032;2023-09-18T01:07:47;991.6297;;;21.85;62.52637
80911;BME280;70359;51.420;7.032;2023-09-18T01:10:12;991.55;;;21.85;62.14551
80911;BME280;70359;51.420;7.032;2023-09-18T01:12:44;991.5499;;;21.84;62.80273
80911;BME280;70359;51.420;7.032;2023-09-18T01:15:04;991.5164;;;21.82;62.5332
80911;BME280;70359;51.420;7.032;2023-09-18T01:17:27;991.5424;;;21.77;62.35352
80911;BME280;70359;51.420;7.032;2023-09-18T01:19:52;991.5475;;;21.76;62.47949
80911;BME280;70359;51.420;7.032;2023-09-18T01:22:18;991.5933;;;21.72;62.63672
80911;BME280;70359;51.420;7.032;2023-09-18T01:24:43;991.5905;;;21.72;62.53223
80911;BME280;70359;51.420;7.032;2023-09-18T01:27:08;991.5222;;;21.67;63.01172
80911;BME280;70359;51.420;7.032;2023-09-18T01:29:32;991.4911;;;21.67;63.18555
80911;BME280;70359;51.420;7.032;2023-09-18T01:31:57;991.4456;;;21.67;63.04688
80911;BME280;70359;51.420;7.032;2023-09-18T01:34:23;991.3989;;;21.68;62.49121
80911;BME280;70359;51.420;7.032;2023-09-18T01:36:47;991.3915;;;21.67;62.2002
80911;BME280;70359;51.420;7.032;2023-09-18T01:39:12;991.3611;;;21.74;62.42969
80911;BME280;70359;51.420;7.032;2023-09-18T01:41:37;991.3698;;;21.65;61.31641
80911;BME280;70359;51.420;7.032;2023-09-18T01:44:02;991.3405;;;21.74;61.25781
80911;BME280;70359;51.420;7.032;2023-09-18T01:46:27;991.3016;;;21.76;60.56445
80911;BME280;70359;51.420;7.032;2023-09-18T01:48:52;991.2689;;;21.82;60.61914
80911;BME280;70359;51.420;7.032;2023-09-18T01:51:17;991.1948;;;21.82;61.07129
80911;BME280;70359;51.420;7.032;2023-09-18T01:53:42;991.1021;;;21.84;59.69238
80911;BME280;70359;51.420;7.032;2023-09-18T01:56:07;991.0602;;;21.88;60.58203
80911;BME280;70359;51.420;7.032;2023-09-18T01:58:32;991.0701;;;21.95;60.12598
80911;BME280;70359;51.420;7.032;2023-09-18T02:00:58;991.02;;;21.96;60.31348
80911;BME280;70359;51.420;7.032;2023-09-18T02:03:22;990.9478;;;21.98;61.3252
80911;BME280;70359;51.420;7.032;2023-09-18T02:05:47;990.9907;;;21.98;60.74609
80911;BME280;70359;51.420;7.032;2023-09-18T02:08:12;990.9847;;;21.96;60.74316
80911;BME280;70359;51.420;7.032;2023-09-18T02:10:37;990.9277;;;21.97;60.8252
80911;BME280;70359;51.420;7.032;2023-09-18T02:13:02;990.8839;;;21.97;61.0459
80911;BME280;70359;51.420;7.032;2023-09-18T02:15:27;990.8658;;;21.97;60.8252
80911;BME280;70359;51.420;7.032;2023-09-18T02:17:52;990.8131;;;21.97;60.51172
80911;BME280;70359;51.420;7.032;2023-09-18T02:20:17;990.8016;;;21.95;60.37012
80911;BME280;70359;51.420;7.032;2023-09-18T02:22:42;990.7642;;;21.96;60.61523
80911;BME280;70359;51.420;7.032;2023-09-18T02:25:08;990.74;;;21.96;60.84766
80911;BME280;70359;51.420;7.032;2023-09-18T02:27:32;990.6936;;;21.94;61.65723
80911;BME280;70359;51.420;7.032;2023-09-18T02:29:57;990.6337;;;21.95;60.43945
80911;BME280;70359;51.420;7.032;2023-09-18T02:32:22;990.5594;;;21.93;60.9248
80911;BME280;70359;51.420;7.032;2023-09-18T02:34:47;990.5002;;;21.96;60.99805
80911;BME280;70359;51.420;7.032;2023-09-18T02:37:12;990.4568;;;21.92;61.14258
80911;BME280;70359;51.420;7.032;2023-09-18T02:39:37;990.3712;;;21.95;60.49805
80911;BME280;70359;51.420;7.032;2023-09-18T02:42:02;990.3245;;;21.93;60.33203
80911;BME280;70359;51.420;7.032;2023-09-18T02:44:27;990.2436;;;21.94;60.35645
80911;BME280;70359;51.420;7.032;2023-09-18T02:46:52;990.1919;;;21.91;60.12012
80911;BME280;70359;51.420;7.032;2023-09-18T02:49:17;990.0952;;;21.96;60.92871
80911;BME280;70359;51.420;7.032;2023-09-18T02:51:42;990.0397;;;21.93;60.75098
80911;BME280;70359;51.420;7.032;2023-09-18T02:54:07;990.0204;;;21.95;61.08984
80911;BME280;70359;51.420;7.032;2023-09-18T02:56:32;990.1044;;;21.9;61.0127
80911;BME280;70359;51.420;7.032;2023-09-18T02:58:57;990.2138;;;21.94;60.9375
80911;BME280;70359;51.420;7.032;2023-09-18T03:01:22;990.1323;;;21.9;60.81641
80911;BME280;70359;51.420;7.032;2023-09-18T03:03:47;990.1303;;;21.98;59.34082
80911;BME280;70359;51.420;7.032;2023-09-18T03:06:12;990.0691;;;21.99;58.57422
80911;BME280;70359;51.420;7.032;2023-09-18T03:08:37;989.9693;;;21.96;58.1875
80911;BME280;70359;51.420;7.032;2023-09-18T03:11:02;989.8731;;;21.95;57.81445
80911;BME280;70359;51.420;7.032;2023-09-18T03:13:27;989.9332;;;22.06;57.81738
80911;BME280;70359;51.420;7.032;2023-09-18T03:15:52;989.8292;;;22.12;57.44141
80911;BME280;70359;51.420;7.032;2023-09-18T03:18:17;989.8986;;;22.18;57.70508
80911;BME280;70359;51.420;7.032;2023-09-18T03:20:42;989.8207;;;22.25;57.19043
80911;BME280;70359;51.420;7.032;2023-09-18T03:23:07;989.7078;;;22.19;56.54395
80911;BME280;70359;51.420;7.032;2023-09-18T03:25:32;989.6155;;;22.24;56.63086
80911;BME280;70359;51.420;7.032;2023-09-18T03:27:57;989.603;;;22.28;57.01953
80911;BME280;70359;51.420;7.032;2023-09-18T03:30:23;989.6082;;;22.33;56.99121
80911;BME280;70359;51.420;7.032;2023-09-18T03:32:47;989.5887;;;22.38;56.71777
80911;BME280;70359;51.420;7.032;2023-09-18T03:35:12;989.5441;;;22.41;56.46582
80911;BME280;70359;51.420;7.032;2023-09-18T03:37:37;989.4694;;;22.44;56.55078
80911;BME280;70359;51.420;7.032;2023-09-18T03:40:03;989.4778;;;22.5;56.94238
80911;BME280;70359;51.420;7.032;2023-09-18T03:42:27;989.5453;;;22.5;56.53516
80911;BME280;70359;51.420;7.032;2023-09-18T03:44:52;989.5256;;;22.56;55.6582
80911;BME280;70359;51.420;7.032;2023-09-18T03:47:17;989.4067;;;22.57;55.7998
80911;BME280;70359;51.420;7.032;2023-09-18T03:49:42;989.3425;;;22.65;55.50684
80911;BME280;70359;51.420;7.032;2023-09-18T03:52:08;989.3544;;;22.65;55.63477
80911;BME280;70359;51.420;7.032;2023-09-18T03:54:32;989.3771;;;22.73;55.37695
80911;BME280;70359;51.420;7.032;2023-09-18T03:56:57;989.2999;;;22.7;56.51367
80911;BME280;70359;51.420;7.032;2023-09-18T03:59:22;989.3191;;;22.52;56.68945
80911;BME280;70359;51.420;7.032;2023-09-18T04:01:47;989.103;;;22.49;56.9873
80911;BME280;70359;51.420;7.032;2023-09-18T04:04:12;989.0299;;;22.58;57.32422
80911;BME280;70359;51.420;7.032;2023-09-18T04:06:41;989.0131;;;22.67;57.93066
80911;BME280;70359;51.420;7.032;2023-09-18T04:09:03;988.897;;;22.7;57.31738
80911;BME280;70359;51.420;7.032;2023-09-18T04:11:27;988.9411;;;22.65;57.125
80911;BME280;70359;51.420;7.032;2023-09-18T04:13:52;988.9277;;;22.73;57.14746
80911;BME280;70359;51.420;7.032;2023-09-18T04:16:18;989.0378;;;22.63;57.16797
80911;BME280;70359;51.420;7.032;2023-09-18T04:18:43;989.0061;;;22.66;57.06738
80911;BME280;70359;51.420;7.032;2023-09-18T04:21:08;989.0292;;;22.5;56.80371
80911;BME280;70359;51.420;7.032;2023-09-18T04:23:33;989.0992;;;22.59;57.4668
80911;BME280;70359;51.420;7.032;2023-09-18T04:25:58;989.0203;;;22.51;57.22461
80911;BME280;70359;51.420;7.032;2023-09-18T04:28:23;989.005;;;22.59;57.79297
80911;BME280;70359;51.420;7.032;2023-09-18T04:30:48;989.084;;;22.49;57.7334
80911;BME280;70359;51.420;7.032;2023-09-18T04:33:13;989.1158;;;22.31;57.96582
80911;BME280;70359;51.420;7.032;2023-09-18T04:35:38;989.1987;;;22.4;57.68652
80911;BME280;70359;51.420;7.032;2023-09-18T04:38:03;989.1802;;;22.23;58.04883
80911;BME280;70359;51.420;7.032;2023-09-18T04:40:28;989.1406;;;22.21;58.19727
80911;BME280;70359;51.420;7.032;2023-09-18T04:42:53;989.1008;;;22.04;58.52344
80911;BME280;70359;51.420;7.032;2023-09-18T04:45:18;989.075;;;22.18;58.26367
80911;BME280;70359;51.420;7.032;2023-09-18T04:47:43;989.1008;;;22.24;58.13086
80911;BME280;70359;51.420;7.032;2023-09-18T04:50:08;989.0301;;;22.34;58.15527
80911;BME280;70359;51.420;7.032;2023-09-18T04:52:33;989.0898;;;22.32;57.81543
80911;BME280;70359;51.420;7.032;2023-09-18T04:54:58;989.1584;;;22.23;58.17773
80911;BME280;70359;51.420;7.032;2023-09-18T04:57:23;989.2458;;;22.31;58.2793
80911;BME280;70359;51.420;7.032;2023-09-18T04:59:48;989.2758;;;22.36;58.23926
80911;BME280;70359;51.420;7.032;2023-09-18T05:02:13;989.3077;;;22.2;58.61426
80911;BME280;70359;51.420;7.032;2023-09-18T05:04:38;989.3284;;;22.02;59.27637
80911;BME280;70359;51.420;7.032;2023-09-18T05:07:03;989.3792;;;22;59.62207
80911;BME280;70359;51.420;7.032;2023-09-18T05:09:28;989.3233;;;22.19;58.99707
80911;BME280;70359;51.420;7.032;2023-09-18T05:11:53;989.3806;;;22.07;59.24609
80911;BME280;70359;51.420;7.032;2023-09-18T05:14:18;989.4807;;;22.16;59.18945
80911;BME280;70359;51.420;7.032;2023-09-18T05:16:43;989.517;;;22.11;59.50879
80911;BME280;70359;51.420;7.032;2023-09-18T05:19:08;989.4724;;;22.25;59.10742
80911;BME280;70359;51.420;7.032;2023-09-18T05:21:33;989.4224;;;22.25;58.99219
80911;BME280;70359;51.420;7.032;2023-09-18T05:23:58;989.5041;;;22.11;59.55371
80911;BME280;70359;51.420;7.032;2023-09-18T05:26:23;989.4482;;;21.85;60.37988
80911;BME280;70359;51.420;7.032;2023-09-18T05:28:48;989.3725;;;21.94;60.37891
80911;BME280;70359;51.420;7.032;2023-09-18T05:31:13;989.3127;;;22.03;60.09082
80911;BME280;70359;51.420;7.032;2023-09-18T05:33:38;989.2855;;;22.1;60.10059
80911;BME280;70359;51.420;7.032;2023-09-18T05:36:03;989.2708;;;22.23;59.88477
80911;BME280;70359;51.420;7.032;2023-09-18T05:38:28;989.3022;;;22.21;59.78906
80911;BME280;70359;51.420;7.032;2023-09-18T05:40:53;989.4036;;;22.06;60.07129
80911;BME280;70359;51.420;7.032;2023-09-18T05:43:18;989.4398;;;21.97;60.53516
80911;BME280;70359;51.420;7.032;2023-09-18T05:45:43;989.415;;;22.08;60.12012
80911;BME280;70359;51.420;7.032;2023-09-18T05:48:08;989.4018;;;22.01;60.36719
80911;BME280;70359;51.420;7.032;2023-09-18T05:50:33;989.2835;;;21.83;60.70215
80911;BME280;70359;51.420;7.032;2023-09-18T05:52:58;989.3828;;;21.92;60.51563
80911;BME280;70359;51.420;7.032;2023-09-18T05:55:23;989.3342;;;21.96;60.30176
80911;BME280;70359;51.420;7.032;2023-09-18T05:57:48;989.3286;;;21.92;60.29688
80911;BME280;70359;51.420;7.032;2023-09-18T06:00:13;989.3862;;;22.03;60.28711
80911;BME280;70359;51.420;7.032;2023-09-18T06:02:38;989.4476;;;22.01;60.23926
80911;BME280;70359;51.420;7.032;2023-09-18T06:05:03;989.4397;;;22.12;59.77637
80911;BME280;70359;51.420;7.032;2023-09-18T06:07:28;989.6083;;;22.05;59.89648
80911;BME280;70359;51.420;7.032;2023-09-18T06:09:53;989.6353;;;22.1;59.90137
80911;BME280;70359;51.420;7.032;2023-09-18T06:12:18;989.5581;;;22.03;59.91602
80911;BME280;70359;51.420;7.032;2023-09-18T06:14:43;989.5266;;;21.99;59.80566
80911;BME280;70359;51.420;7.032;2023-09-18T06:17:08;989.5974;;;21.93;60.23828
80911;BME280;70359;51.420;7.032;2023-09-18T06:19:33;989.7037;;;22.01;59.85547
80911;BME280;70359;51.420;7.032;2023-09-18T06:21:58;989.8005;;;21.95;60.25391
80911;BME280;70359;51.420;7.032;2023-09-18T06:24:23;989.9417;;;21.9;60.07422
80911;BME280;70359;51.420;7.032;2023-09-18T06:26:48;989.8139;;;21.88;60.5127
80911;BME280;70359;51.420;7.032;2023-09-18T06:29:13;989.7772;;;21.98;60.04883
80911;BME280;70359;51.420;7.032;2023-09-18T06:31:38;989.7507;;;21.77;60.27734
80911;BME280;70359;51.420;7.032;2023-09-18T06:34:03;989.7448;;;21.73;60.46777
80911;BME280;70359;51.420;7.032;2023-09-18T06:36:28;989.8983;;;21.74;60.71387
80911;BME280;70359;51.420;7.032;2023-09-18T06:38:53;989.891;;;21.42;61.2959
80911;BME280;70359;51.420;7.032;2023-09-18T06:41:18;989.7747;;;21.48;61.25781
80911;BME280;70359;51.420;7.032;2023-09-18T06:43:43;989.7729;;;21.6;61.13477
80911;BME280;70359;51.420;7.032;2023-09-18T06:46:08;989.782;;;21.69;60.98438
80911;BME280;70359;51.420;7.032;2023-09-18T06:48:33;989.7247;;;21.59;61.22656
80911;BME280;70359;51.420;7.032;2023-09-18T06:50:58;989.7064;;;21.67;60.37891
80911;BME280;70359;51.420;7.032;2023-09-18T06:53:23;989.9914;;;21.77;60.19629
80911;BME280;70359;51.420;7.032;2023-09-18T06:55:48;989.9207;;;21.85;59.92578
80911;BME280;70359;51.420;7.032;2023-09-18T06:58:13;989.9525;;;21.81;60.08398
80911;BME280;70359;51.420;7.032;2023-09-18T07:00:38;989.9384;;;21.77;60.13672
80911;BME280;70359;51.420;7.032;2023-09-18T07:03:03;989.9308;;;21.7;60.5459
80911;BME280;70359;51.420;7.032;2023-09-18T07:05:28;990.0681;;;21.75;59.99512
80911;BME280;70359;51.420;7.032;2023-09-18T07:07:53;990.0627;;;21.79;60.10449
80911;BME280;70359;51.420;7.032;2023-09-18T07:10:18;990.0424;;;21.92;59.9834
80911;BME280;70359;51.420;7.032;2023-09-18T07:12:43;990.1453;;;21.86;60.18359
80911;BME280;70359;51.420;7.032;2023-09-18T07:15:09;990.1744;;;21.93;59.79883
80911;BME280;70359;51.420;7.032;2023-09-18T07:17:33;990.1008;;;21.89;60.30371
80911;BME280;70359;51.420;7.032;2023-09-18T07:19:58;990.1259;;;21.93;60.13379
80911;BME280;70359;51.420;7.032;2023-09-18T07:22:23;990.1445;;;21.96;60.0459
80911;BME280;70359;51.420;7.032;2023-09-18T07:24:48;990.1116;;;22.02;59.79785
80911;BME280;70359;51.420;7.032;2023-09-18T07:27:14;990.1495;;;21.88;59.94336
80911;BME280;70359;51.420;7.032;2023-09-18T07:29:38;990.1546;;;21.64;60.47949
80911;BME280;70359;51.420;7.032;2023-09-18T07:32:03;990.1097;;;21.72;60.4082
80911;BME280;70359;51.420;7.032;2023-09-18T07:34:28;990.2499;;;21.88;60.28027
80911;BME280;70359;51.420;7.032;2023-09-18T07:36:53;990.3155;;;21.91;59.99219
80911;BME280;70359;51.420;7.032;2023-09-18T07:39:18;990.3635;;;21.96;59.79102
80911;BME280;70359;51.420;7.032;2023-09-18T07:41:43;990.4089;;;21.82;60.52637
80911;BME280;70359;51.420;7.032;2023-09-18T07:44:08;990.4081;;;21.78;60.50977
80911;BME280;70359;51.420;7.032;2023-09-18T07:46:33;990.423;;;21.8;60.52344
80911;BME280;70359;51.420;7.032;2023-09-18T07:48:58;990.4113;;;21.97;60.38379
80911;BME280;70359;51.420;7.032;2023-09-18T07:51:23;990.3406;;;21.93;60.2168
80911;BME280;70359;51.420;7.032;2023-09-18T07:53:48;990.4221;;;22.02;59.9834
80911;BME280;70359;51.420;7.032;2023-09-18T07:56:14;990.4609;;;21.98;59.88672
80911;BME280;70359;51.420;7.032;2023-09-18T07:58:38;990.4288;;;22.09;60.15625
80911;BME280;70359;51.420;7.032;2023-09-18T08:01:03;990.3812;;;22.13;59.42871
80911;BME280;70359;51.420;7.032;2023-09-18T08:03:28;990.4988;;;22.12;59.38086
80911;BME280;70359;51.420;7.032;2023-09-18T08:05:53;990.4526;;;22.06;59.04883
80911;BME280;70359;51.420;7.032;2023-09-18T08:08:18;990.7775;;;22;59.25
80911;BME280;70359;51.420;7.032;2023-09-18T08:10:43;990.7155;;;21.97;58.74707
80911;BME280;70359;51.420;7.032;2023-09-18T08:13:08;990.4802;;;22.01;58.96191
80911;BME280;70359;51.420;7.032;2023-09-18T08:15:33;990.4191;;;21.98;59.07324
80911;BME280;70359;51.420;7.032;2023-09-18T08:17:58;990.4664;;;22.01;58.87988
80911;BME280;70359;51.420;7.032;2023-09-18T08:20:23;990.6144;;;21.93;58.69531
80911;BME280;70359;51.420;7.032;2023-09-18T08:22:48;990.6806;;;21.8;59.33984
80911;BME280;70359;51.420;7.032;2023-09-18T08:25:13;990.7316;;;21.96;59.53516
80911;BME280;70359;51.420;7.032;2023-09-18T08:27:38;990.6898;;;21.88;59.13086
80911;BME280;70359;51.420;7.032;2023-09-18T08:30:03;990.7087;;;21.94;58.8125
80911;BME280;70359;51.420;7.032;2023-09-18T08:32:28;990.6955;;;21.96;59.05859
80911;BME280;70359;51.420;7.032;2023-09-18T08:34:53;990.6783;;;22.08;58.69141
80911;BME280;70359;51.420;7.032;2023-09-18T08:37:18;990.6786;;;22.03;57.98828
80911;BME280;70359;51.420;7.032;2023-09-18T08:39:43;990.6697;;;22.13;58.16309
80911;BME280;70359;51.420;7.032;2023-09-18T08:42:08;990.6586;;;22.11;58.61426
80911;BME280;70359;51.420;7.032;2023-09-18T08:44:33;990.6513;;;22.14;58.07129
80911;BME280;70359;51.420;7.032;2023-09-18T08:46:58;990.6142;;;21.99;58.09863
80911;BME280;70359;51.420;7.032;2023-09-18T08:49:23;990.7017;;;21.96;58.07129
80911;BME280;70359;51.420;7.032;2023-09-18T08:51:48;990.8317;;;21.94;57.86035
80911;BME280;70359;51.420;7.032;2023-09-18T08:54:13;990.8303;;;21.89;57.86426
80911;BME280;70359;51.420;7.032;2023-09-18T08:56:38;990.7742;;;21.93;57.95215
80911;BME280;70359;51.420;7.032;2023-09-18T08:59:03;990.8117;;;22.02;57.83594
80911;BME280;70359;51.420;7.032;2023-09-18T09:01:28;990.7773;;;22.02;57.9043
80911;BME280;70359;51.420;7.032;2023-09-18T09:03:54;990.8433;;;22.11;57.96387
80911;BME280;70359;51.420;7.032;2023-09-18T09:06:18;990.8457;;;22.05;58.1748
80911;BME280;70359;51.420;7.032;2023-09-18T09:08:43;990.8427;;;22.11;57.76563
80911;BME280;70359;51.420;7.032;2023-09-18T09:11:08;990.8562;;;22.14;56.73438
80911;BME280;70359;51.420;7.032;2023-09-18T09:13:33;990.8416;;;21.99;57.51758
80911;BME280;70359;51.420;7.032;2023-09-18T09:15:58;990.8167;;;22.06;57.47949
80911;BME280;70359;51.420;7.032;2023-09-18T09:18:23;990.767;;;21.74;57.58984
80911;BME280;70359;51.420;7.032;2023-09-18T09:20:56;990.803;;;21.97;57.91016
80911;BME280;70359;51.420;7.032;2023-09-18T09:23:13;990.805;;;22.02;58.20801
80911;BME280;70359;51.420;7.032;2023-09-18T09:25:38;990.8306;;;22.19;57.60156
80911;BME280;70359;51.420;7.032;2023-09-18T09:28:04;990.8837;;;22.18;57.20508
80911;BME280;70359;51.420;7.032;2023-09-18T09:30:28;990.7972;;;22.28;56.6582
80911;BME280;70359;51.420;7.032;2023-09-18T09:32:54;990.8049;;;22.12;55.69629
80911;BME280;70359;51.420;7.032;2023-09-18T09:35:22;990.8702;;;22.22;56.25684
80911;BME280;70359;51.420;7.032;2023-09-18T09:37:43;990.8956;;;22.22;56.57031
80911;BME280;70359;51.420;7.032;2023-09-18T09:40:09;990.8575;;;22.25;55.6543
80911;BME280;70359;51.420;7.032;2023-09-18T09:42:37;990.9615;;;22.28;55.92676
80911;BME280;70359;51.420;7.032;2023-09-18T09:45:04;990.8987;;;22.27;55.15625
80911;BME280;70359;51.420;7.032;2023-09-18T09:47:23;991.0854;;;21.98;56.25
80911;BME280;70359;51.420;7.032;2023-09-18T09:49:48;991.0403;;;21.84;56
80911;BME280;70359;51.420;7.032;2023-09-18T09:52:17;990.925;;;21.79;56.43457
80911;BME280;70359;51.420;7.032;2023-09-18T09:54:38;990.8939;;;22.05;56.62988
80911;BME280;70359;51.420;7.032;2023-09-18T09:57:05;990.9177;;;22.13;55.65234
80911;BME280;70359;51.420;7.032;2023-09-18T09:59:28;990.9131;;;22.15;55.46777
80911;BME280;70359;51.420;7.032;2023-09-18T10:01:53;990.9877;;;22.02;55.71875
80911;BME280;70359;51.420;7.032;2023-09-18T10:04:18;991.0775;;;22.12;55.92969
80911;BME280;70359;51.420;7.032;2023-09-18T10:06:44;991.0374;;;22.13;56.28027
80911;BME280;70359;51.420;7.032;2023-09-18T10:09:09;991.0552;;;22.26;56.5752
80911;BME280;70359;51.420;7.032;2023-09-18T10:11:34;991.0042;;;22.36;55.62305
80911;BME280;70359;51.420;7.032;2023-09-18T10:13:59;991.1249;;;22.37;55.55371
80911;BME280;70359;51.420;7.032;2023-09-18T10:16:23;991.0657;;;22.35;55.39941
80911;BME280;70359;51.420;7.032;2023-09-18T10:18:49;991.0159;;;22.43;55.00195
80911;BME280;70359;51.420;7.032;2023-09-18T10:21:16;991.0388;;;22.43;55.51563
80911;BME280;70359;51.420;7.032;2023-09-18T10:23:42;990.8948;;;22.49;54.96289
80911;BME280;70359;51.420;7.032;2023-09-18T10:26:03;990.8702;;;22.49;55.00977
80911;BME280;70359;51.420;7.032;2023-09-18T10:28:28;990.8722;;;22.44;55.30664
80911;BME280;70359;51.420;7.032;2023-09-18T10:30:54;990.8072;;;22.45;54.93457
80911;BME280;70359;51.420;7.032;2023-09-18T10:33:19;990.7726;;;22.47;55.2168
80911;BME280;70359;51.420;7.032;2023-09-18T10:35:43;990.7615;;;22.65;55.13379
80911;BME280;70359;51.420;7.032;2023-09-18T10:38:09;990.8117;;;22.66;55.01855
80911;BME280;70359;51.420;7.032;2023-09-18T10:40:33;990.7955;;;22.88;55.06836
80911;BME280;70359;51.420;7.032;2023-09-18T10:42:58;990.8295;;;22.86;55.05469
80911;BME280;70359;51.420;7.032;2023-09-18T10:45:23;990.8767;;;23.01;55.66797
80911;BME280;70359;51.420;7.032;2023-09-18T10:47:48;990.8472;;;23.01;56.0625
80911;BME280;70359;51.420;7.032;2023-09-18T10:50:15;990.8354;;;23.04;55.36816
80911;BME280;70359;51.420;7.032;2023-09-18T10:52:42;990.7961;;;23.06;54.40234
80911;BME280;70359;51.420;7.032;2023-09-18T10:55:04;990.8498;;;23.06;53.50586
80911;BME280;70359;51.420;7.032;2023-09-18T10:57:28;990.8269;;;23.12;54.22363
80911;BME280;70359;51.420;7.032;2023-09-18T10:59:54;990.8635;;;23.19;54.58203
80911;BME280;70359;51.420;7.032;2023-09-18T11:02:18;990.8275;;;23.3;54.78125
80911;BME280;70359;51.420;7.032;2023-09-18T11:04:44;990.8602;;;23.41;54.50391
80911;BME280;70359;51.420;7.032;2023-09-18T11:07:09;990.8181;;;23.45;54.73047
80911;BME280;70359;51.420;7.032;2023-09-18T11:09:40;990.8503;;;23.53;53.4082
80911;BME280;70359;51.420;7.032;2023-09-18T11:12:05;990.8543;;;23.59;53.66113
80911;BME280;70359;51.420;7.032;2023-09-18T11:14:24;990.8131;;;23.6;53.33496
80911;BME280;70359;51.420;7.032;2023-09-18T11:16:49;990.7692;;;23.42;53.20898
80911;BME280;70359;51.420;7.032;2023-09-18T11:19:16;990.8028;;;23.56;53.06152
80911;BME280;70359;51.420;7.032;2023-09-18T11:21:39;990.7461;;;23.66;52.75879
80911;BME280;70359;51.420;7.032;2023-09-18T11:24:04;990.7813;;;23.7;52.78613
80911;BME280;70359;51.420;7.032;2023-09-18T11:26:32;990.8233;;;23.68;51.99023
80911;BME280;70359;51.420;7.032;2023-09-18T11:28:54;990.7636;;;23.74;52.14941
80911;BME280;70359;51.420;7.032;2023-09-18T11:31:19;990.81;;;23.74;51.75195
80911;BME280;70359;51.420;7.032;2023-09-18T11:33:44;990.7528;;;23.58;50.75195
80911;BME280;70359;51.420;7.032;2023-09-18T11:36:11;990.6802;;;23.73;52.26465
80911;BME280;70359;51.420;7.032;2023-09-18T11:38:34;990.5706;;;23.72;51.24707
80911;BME280;70359;51.420;7.032;2023-09-18T11:40:59;990.6344;;;23.74;50.81641
80911;BME280;70359;51.420;7.032;2023-09-18T11:43:25;990.7178;;;23.79;50.7168
80911;BME280;70359;51.420;7.032;2023-09-18T11:45:49;990.6395;;;23.88;50.46973
80911;BME280;70359;51.420;7.032;2023-09-18T11:48:14;990.7137;;;23.83;50.39453
80911;BME280;70359;51.420;7.032;2023-09-18T11:50:39;990.745;;;23.99;49.58105
80911;BME280;70359;51.420;7.032;2023-09-18T11:53:04;990.742;;;23.9;49.82813
80911;BME280;70359;51.420;7.032;2023-09-18T11:55:29;990.783;;;24.05;49.72754
80911;BME280;70359;51.420;7.032;2023-09-18T11:57:54;990.6724;;;23.94;48.94336
80911;BME280;70359;51.420;7.032;2023-09-18T12:00:22;990.6364;;;24.07;49.15625
80911;BME280;70359;51.420;7.032;2023-09-18T12:02:44;990.6556;;;24.03;49.54004
80911;BME280;70359;51.420;7.032;2023-09-18T12:05:09;990.6306;;;23.99;49.1709
80911;BME280;70359;51.420;7.032;2023-09-18T12:07:35;990.5885;;;23.98;49.79102
80911;BME280;70359;51.420;7.032;2023-09-18T12:09:59;990.5564;;;23.86;49.33301
80911;BME280;70359;51.420;7.032;2023-09-18T12:12:24;990.4484;;;23.8;49.58398
80911;BME280;70359;51.420;7.032;2023-09-18T12:14:49;990.478;;;23.84;49.41309
80911;BME280;70359;51.420;7.032;2023-09-18T12:17:17;990.528;;;23.82;49.02344
80911;BME280;70359;51.420;7.032;2023-09-18T12:19:39;990.5038;;;23.83;49.3418